sensor_id;sensor_type;location;lat;lon;timestamp;pressure;altitude;pressure_sealevel;temperature;humidity
77019;BME280;66044;53.142;17.962;2023-10-31T00:00:48;99512.74;;;10.14;82.22
77019;BME280;66044;53.142;17.962;2023-10-31T00:03:28;99507.56;;;10.16;82.03
77019;BME280;66044;53.142;17.962;2023-10-31T00:05:55;99508.87;;;10.18;82.25
77019;BME280;66044;53.142;17.962;2023-10-31T00:08:22;99501.81;;;10.21;82.06
77019;BME280;66044;53.142;17.962;2023-10-31T00:10:48;99498.27;;;10.24;82.26
77019;BME280;66044;53.142;17.962;2023-10-31T00:13:14;99492.40;;;10.26;82.13
77019;BME280;66044;53.142;17.962;2023-10-31T00:15:41;99489.02;;;10.30;81.90
77019;BME280;66044;53.142;17.962;2023-10-31T00:18:07;99484.17;;;10.33;82.34
77019;BME280;66044;53.142;17.962;2023-10-31T00:20:34;99479.58;;;10.35;82.05
77019;BME280;66044;53.142;17.962;2023-10-31T00:23:01;99471.48;;;10.39;82.24
77019;BME280;66044;53.142;17.962;2023-10-31T00:25:27;99464.95;;;10.41;82.49
77019;BME280;66044;53.142;17.962;2023-10-31T00:27:53;99464.92;;;10.43;82.34
77019;BME280;66044;53.142;17.962;2023-10-31T00:30:20;99466.95;;;10.46;82.11
77019;BME280;66044;53.142;17.962;2023-10-31T00:32:47;99456.34;;;10.47;82.28
77019;BME280;66044;53.142;17.962;2023-10-31T00:35:13;99449.02;;;10.50;82.58
77019;BME280;66044;53.142;17.962;2023-10-31T00:37:40;99442.00;;;10.52;82.44
77019;BME280;66044;53.142;17.962;2023-10-31T00:40:09;99434.27;;;10.54;82.28
77019;BME280;66044;53.142;17.962;2023-10-31T00:42:38;99427.64;;;10.56;82.45
77019;BME280;66044;53.142;17.962;2023-10-31T00:45:08;99417.80;;;10.58;82.36
77019;BME280;66044;53.142;17.962;2023-10-31T00:47:34;99408.65;;;10.61;82.41
77019;BME280;66044;53.142;17.962;2023-10-31T00:50:02;99404.30;;;10.63;82.50
77019;BME280;66044;53.142;17.962;2023-10-31T00:52:29;99403.64;;;10.64;82.34
77019;BME280;66044;53.142;17.962;2023-10-31T00:54:55;99398.67;;;10.66;82.28
77019;BME280;66044;53.142;17.962;2023-10-31T00:57:21;99397.02;;;10.67;82.35
77019;BME280;66044;53.142;17.962;2023-10-31T00:59:48;99390.88;;;10.67;82.41
77019;BME280;66044;53.142;17.962;2023-10-31T01:02:14;99381.82;;;10.68;82.33
77019;BME280;66044;53.142;17.962;2023-10-31T01:04:41;99378.40;;;10.69;82.46
77019;BME280;66044;53.142;17.962;2023-10-31T01:07:08;99378.71;;;10.70;82.63
77019;BME280;66044;53.142;17.962;2023-10-31T01:09:38;99374.67;;;10.71;82.59
77019;BME280;66044;53.142;17.962;2023-10-31T01:12:05;99368.40;;;10.72;82.18
77019;BME280;66044;53.142;17.962;2023-10-31T01:14:31;99369.64;;;10.72;82.41
77019;BME280;66044;53.142;17.962;2023-10-31T01:16:58;99365.61;;;10.74;82.53
77019;BME280;66044;53.142;17.962;2023-10-31T01:19:24;99355.41;;;10.74;82.70
77019;BME280;66044;53.142;17.962;2023-10-31T01:21:51;99348.51;;;10.75;82.51
77019;BME280;66044;53.142;17.962;2023-10-31T01:24:17;99340.23;;;10.75;82.51
77019;BME280;66044;53.142;17.962;2023-10-31T01:26:43;99333.39;;;10.76;82.48
77019;BME280;66044;53.142;17.962;2023-10-31T01:29:10;99313.45;;;10.76;82.73
77019;BME280;66044;53.142;17.962;2023-10-31T01:31:36;99305.48;;;10.77;82.64
77019;BME280;66044;53.142;17.962;2023-10-31T01:34:03;99294.85;;;10.79;83.01
77019;BME280;66044;53.142;17.962;2023-10-31T01:36:29;99289.05;;;10.81;82.95
77019;BME280;66044;53.142;17.962;2023-10-31T01:38:56;99277.79;;;10.82;82.83
77019;BME280;66044;53.142;17.962;2023-10-31T01:41:22;99266.91;;;10.84;82.59
77019;BME280;66044;53.142;17.962;2023-10-31T01:43:49;99263.96;;;10.87;82.62
77019;BME280;66044;53.142;17.962;2023-10-31T01:46:16;99258.93;;;10.89;82.76
77019;BME280;66044;53.142;17.962;2023-10-31T01:48:42;99257.95;;;10.91;83.32
77019;BME280;66044;53.142;17.962;2023-10-31T01:51:09;99255.67;;;10.93;83.19
77019;BME280;66044;53.142;17.962;2023-10-31T01:53:36;99244.56;;;10.94;82.89
77019;BME280;66044;53.142;17.962;2023-10-31T01:56:03;99237.92;;;10.97;82.76
77019;BME280;66044;53.142;17.962;2023-10-31T01:58:34;99232.11;;;10.99;83.10
77019;BME280;66044;53.142;17.962;2023-10-31T02:01:01;99223.93;;;11.01;83.08
77019;BME280;66044;53.142;17.962;2023-10-31T02:03:28;99218.45;;;11.03;83.11
77019;BME280;66044;53.142;17.962;2023-10-31T02:05:54;99213.47;;;11.06;82.73
77019;BME280;66044;53.142;17.962;2023-10-31T02:08:21;99213.66;;;11.08;82.96
77019;BME280;66044;53.142;17.962;2023-10-31T02:10:47;99209.31;;;11.09;83.15
77019;BME280;66044;53.142;17.962;2023-10-31T02:13:16;99201.20;;;11.11;82.81
77019;BME280;66044;53.142;17.962;2023-10-31T02:15:43;99194.98;;;11.14;82.99
77019;BME280;66044;53.142;17.962;2023-10-31T02:18:10;99189.11;;;11.15;82.90
77019;BME280;66044;53.142;17.962;2023-10-31T02:20:37;99184.30;;;11.17;82.99
77019;BME280;66044;53.142;17.962;2023-10-31T02:23:04;99181.09;;;11.19;82.60
77019;BME280;66044;53.142;17.962;2023-10-31T02:25:30;99174.75;;;11.22;83.08
77019;BME280;66044;53.142;17.962;2023-10-31T02:27:57;99171.23;;;11.23;82.41
77019;BME280;66044;53.142;17.962;2023-10-31T02:30:24;99167.99;;;11.27;82.83
77019;BME280;66044;53.142;17.962;2023-10-31T02:32:51;99158.70;;;11.29;82.99
77019;BME280;66044;53.142;17.962;2023-10-31T02:35:17;99151.65;;;11.30;82.61
77019;BME280;66044;53.142;17.962;2023-10-31T02:37:45;99148.69;;;11.32;82.57
77019;BME280;66044;53.142;17.962;2023-10-31T02:40:12;99146.88;;;11.35;82.52
77019;BME280;66044;53.142;17.962;2023-10-31T02:42:39;99141.25;;;11.35;82.60
77019;BME280;66044;53.142;17.962;2023-10-31T02:45:06;99137.73;;;11.36;82.72
77019;BME280;66044;53.142;17.962;2023-10-31T02:47:33;99137.81;;;11.37;82.76
77019;BME280;66044;53.142;17.962;2023-10-31T02:49:59;99129.46;;;11.38;82.69
77019;BME280;66044;53.142;17.962;2023-10-31T02:52:26;99127.27;;;11.41;83.09
77019;BME280;66044;53.142;17.962;2023-10-31T02:54:52;99123.05;;;11.43;82.76
77019;BME280;66044;53.142;17.962;2023-10-31T02:57:19;99120.55;;;11.45;82.50
77019;BME280;66044;53.142;17.962;2023-10-31T02:59:45;99113.82;;;11.47;82.54
77019;BME280;66044;53.142;17.962;2023-10-31T03:02:13;99109.00;;;11.49;82.64
77019;BME280;66044;53.142;17.962;2023-10-31T03:04:42;99102.26;;;11.53;82.83
77019;BME280;66044;53.142;17.962;2023-10-31T03:07:08;99095.98;;;11.55;82.47
77019;BME280;66044;53.142;17.962;2023-10-31T03:09:34;99095.85;;;11.57;82.66
77019;BME280;66044;53.142;17.962;2023-10-31T03:12:01;99092.42;;;11.61;82.46
77019;BME280;66044;53.142;17.962;2023-10-31T03:14:27;99087.84;;;11.63;82.53
77019;BME280;66044;53.142;17.962;2023-10-31T03:16:54;99081.65;;;11.67;82.53
77019;BME280;66044;53.142;17.962;2023-10-31T03:19:20;99075.30;;;11.70;82.46
77019;BME280;66044;53.142;17.962;2023-10-31T03:21:47;99062.96;;;11.74;82.52
77019;BME280;66044;53.142;17.962;2023-10-31T03:24:13;99057.55;;;11.77;82.60
77019;BME280;66044;53.142;17.962;2023-10-31T03:26:40;99046.44;;;11.81;82.51
77019;BME280;66044;53.142;17.962;2023-10-31T03:29:06;99039.17;;;11.86;82.38
77019;BME280;66044;53.142;17.962;2023-10-31T03:31:33;99030.59;;;11.90;82.28
77019;BME280;66044;53.142;17.962;2023-10-31T03:34:02;99021.77;;;11.95;82.31
77019;BME280;66044;53.142;17.962;2023-10-31T03:36:28;99025.89;;;12.00;82.22
77019;BME280;66044;53.142;17.962;2023-10-31T03:38:54;99027.86;;;12.07;82.21
77019;BME280;66044;53.142;17.962;2023-10-31T03:41:21;99031.88;;;12.12;82.15
77019;BME280;66044;53.142;17.962;2023-10-31T03:43:47;99040.38;;;12.19;82.20
77019;BME280;66044;53.142;17.962;2023-10-31T03:46:14;99042.35;;;12.27;81.98
77019;BME280;66044;53.142;17.962;2023-10-31T03:48:41;99035.30;;;12.33;81.76
77019;BME280;66044;53.142;17.962;2023-10-31T03:51:08;99018.48;;;12.38;81.65
77019;BME280;66044;53.142;17.962;2023-10-31T03:53:34;99014.80;;;12.43;81.54
77019;BME280;66044;53.142;17.962;2023-10-31T03:56:00;99010.98;;;12.48;81.41
77019;BME280;66044;53.142;17.962;2023-10-31T03:58:27;99000.92;;;12.52;81.40
77019;BME280;66044;53.142;17.962;2023-10-31T04:00:53;98998.70;;;12.56;81.23
77019;BME280;66044;53.142;17.962;2023-10-31T04:03:20;98981.25;;;12.59;81.18
77019;BME280;66044;53.142;17.962;2023-10-31T04:05:46;98977.86;;;12.61;81.06
77019;BME280;66044;53.142;17.962;2023-10-31T04:08:13;98970.95;;;12.64;81.07
77019;BME280;66044;53.142;17.962;2023-10-31T04:10:39;98959.88;;;12.67;80.97
77019;BME280;66044;53.142;17.962;2023-10-31T04:13:05;98948.73;;;12.70;80.83
77019;BME280;66044;53.142;17.962;2023-10-31T04:15:32;98949.41;;;12.73;80.78
77019;BME280;66044;53.142;17.962;2023-10-31T04:18:01;98933.73;;;12.76;80.72
77019;BME280;66044;53.142;17.962;2023-10-31T04:20:27;98946.98;;;12.83;80.63
77019;BME280;66044;53.142;17.962;2023-10-31T04:22:54;98938.28;;;12.86;80.51
77019;BME280;66044;53.142;17.962;2023-10-31T04:25:21;98942.05;;;12.88;80.40
77019;BME280;66044;53.142;17.962;2023-10-31T04:27:47;98940.21;;;12.91;80.29
77019;BME280;66044;53.142;17.962;2023-10-31T04:30:14;98944.38;;;12.94;80.31
77019;BME280;66044;53.142;17.962;2023-10-31T04:32:41;98946.92;;;12.96;80.20
77019;BME280;66044;53.142;17.962;2023-10-31T04:35:07;98941.68;;;13.00;80.12
77019;BME280;66044;53.142;17.962;2023-10-31T04:37:34;98948.01;;;13.04;79.95
77019;BME280;66044;53.142;17.962;2023-10-31T04:40:00;98946.23;;;13.08;79.96
77019;BME280;66044;53.142;17.962;2023-10-31T04:42:27;98941.16;;;13.12;79.90
77019;BME280;66044;53.142;17.962;2023-10-31T04:44:53;98939.81;;;13.15;79.80
77019;BME280;66044;53.142;17.962;2023-10-31T04:47:19;98933.55;;;13.18;79.84
77019;BME280;66044;53.142;17.962;2023-10-31T04:49:46;98931.11;;;13.22;79.76
77019;BME280;66044;53.142;17.962;2023-10-31T04:52:12;98929.85;;;13.25;79.63
77019;BME280;66044;53.142;17.962;2023-10-31T04:54:40;98927.48;;;13.27;79.52
77019;BME280;66044;53.142;17.962;2023-10-31T04:57:06;98922.09;;;13.30;79.49
77019;BME280;66044;53.142;17.962;2023-10-31T04:59:32;98917.38;;;13.32;79.36
77019;BME280;66044;53.142;17.962;2023-10-31T05:01:59;98912.60;;;13.35;79.20
77019;BME280;66044;53.142;17.962;2023-10-31T05:04:25;98908.84;;;13.36;79.16
77019;BME280;66044;53.142;17.962;2023-10-31T05:06:52;98904.97;;;13.38;78.99
77019;BME280;66044;53.142;17.962;2023-10-31T05:09:19;98902.64;;;13.39;79.13
77019;BME280;66044;53.142;17.962;2023-10-31T05:11:46;98894.86;;;13.40;79.00
77019;BME280;66044;53.142;17.962;2023-10-31T05:14:12;98892.48;;;13.39;78.87
77019;BME280;66044;53.142;17.962;2023-10-31T05:16:40;98884.70;;;13.40;78.91
77019;BME280;66044;53.142;17.962;2023-10-31T05:19:07;98884.54;;;13.41;78.81
77019;BME280;66044;53.142;17.962;2023-10-31T05:21:33;98884.77;;;13.41;78.73
77019;BME280;66044;53.142;17.962;2023-10-31T05:24:00;98884.85;;;13.42;78.67
77019;BME280;66044;53.142;17.962;2023-10-31T05:26:26;98882.08;;;13.43;78.64
77019;BME280;66044;53.142;17.962;2023-10-31T05:28:55;98875.53;;;13.43;78.49
77019;BME280;66044;53.142;17.962;2023-10-31T05:31:24;98873.91;;;13.43;78.56
77019;BME280;66044;53.142;17.962;2023-10-31T05:33:51;98865.89;;;13.43;78.36
77019;BME280;66044;53.142;17.962;2023-10-31T05:36:20;98858.34;;;13.43;78.46
77019;BME280;66044;53.142;17.962;2023-10-31T05:38:47;98855.18;;;13.45;78.40
77019;BME280;66044;53.142;17.962;2023-10-31T05:41:14;98852.23;;;13.48;78.41
77019;BME280;66044;53.142;17.962;2023-10-31T05:43:41;98857.64;;;13.50;78.12
77019;BME280;66044;53.142;17.962;2023-10-31T05:46:08;98858.17;;;13.51;78.22
77019;BME280;66044;53.142;17.962;2023-10-31T05:48:40;98857.25;;;13.52;78.11
77019;BME280;66044;53.142;17.962;2023-10-31T05:51:17;98851.94;;;13.52;78.09
77019;BME280;66044;53.142;17.962;2023-10-31T05:53:46;98852.86;;;13.51;78.07
77019;BME280;66044;53.142;17.962;2023-10-31T05:56:15;98851.23;;;13.51;77.75
77019;BME280;66044;53.142;17.962;2023-10-31T05:58:42;98850.17;;;13.52;77.80
77019;BME280;66044;53.142;17.962;2023-10-31T06:01:09;98846.07;;;13.53;77.77
77019;BME280;66044;53.142;17.962;2023-10-31T06:03:35;98844.66;;;13.53;77.72
77019;BME280;66044;53.142;17.962;2023-10-31T06:06:02;98837.89;;;13.55;77.65
77019;BME280;66044;53.142;17.962;2023-10-31T06:08:28;98837.19;;;13.57;77.72
77019;BME280;66044;53.142;17.962;2023-10-31T06:10:56;98837.42;;;13.59;77.47
77019;BME280;66044;53.142;17.962;2023-10-31T06:13:23;98841.41;;;13.61;77.42
77019;BME280;66044;53.142;17.962;2023-10-31T06:15:54;98848.80;;;13.63;77.58
77019;BME280;66044;53.142;17.962;2023-10-31T06:18:21;98846.80;;;13.64;77.46
77019;BME280;66044;53.142;17.962;2023-10-31T06:20:47;98844.64;;;13.64;77.38
77019;BME280;66044;53.142;17.962;2023-10-31T06:23:14;98843.87;;;13.65;77.22
77019;BME280;66044;53.142;17.962;2023-10-31T06:25:41;98844.17;;;13.67;77.41
77019;BME280;66044;53.142;17.962;2023-10-31T06:28:07;98846.73;;;13.67;77.20
77019;BME280;66044;53.142;17.962;2023-10-31T06:30:33;98841.84;;;13.68;77.22
77019;BME280;66044;53.142;17.962;2023-10-31T06:33:00;98840.30;;;13.70;77.26
77019;BME280;66044;53.142;17.962;2023-10-31T06:35:26;98843.08;;;13.71;77.17
77019;BME280;66044;53.142;17.962;2023-10-31T06:37:55;98841.77;;;13.72;77.04
77019;BME280;66044;53.142;17.962;2023-10-31T06:40:24;98844.15;;;13.72;77.11
77019;BME280;66044;53.142;17.962;2023-10-31T06:42:51;98837.84;;;13.70;77.28
77019;BME280;66044;53.142;17.962;2023-10-31T06:45:18;98835.14;;;13.71;77.32
77019;BME280;66044;53.142;17.962;2023-10-31T06:47:45;98834.67;;;13.71;77.41
77019;BME280;66044;53.142;17.962;2023-10-31T06:50:11;98829.98;;;13.69;77.50
77019;BME280;66044;53.142;17.962;2023-10-31T06:52:37;98829.05;;;13.68;77.66
77019;BME280;66044;53.142;17.962;2023-10-31T06:55:04;98823.84;;;13.66;77.59
77019;BME280;66044;53.142;17.962;2023-10-31T06:57:31;98824.44;;;13.64;77.69
77019;BME280;66044;53.142;17.962;2023-10-31T06:59:58;98822.59;;;13.63;77.84
77019;BME280;66044;53.142;17.962;2023-10-31T07:02:24;98818.43;;;13.62;77.82
77019;BME280;66044;53.142;17.962;2023-10-31T07:04:52;98814.45;;;13.61;77.94
77019;BME280;66044;53.142;17.962;2023-10-31T07:07:18;98809.60;;;13.57;78.18
77019;BME280;66044;53.142;17.962;2023-10-31T07:09:45;98817.61;;;13.60;78.21
77019;BME280;66044;53.142;17.962;2023-10-31T07:12:11;98814.98;;;13.59;78.40
77019;BME280;66044;53.142;17.962;2023-10-31T07:14:38;98812.14;;;13.59;78.37
77019;BME280;66044;53.142;17.962;2023-10-31T07:17:04;98809.59;;;13.58;78.50
77019;BME280;66044;53.142;17.962;2023-10-31T07:19:31;98803.27;;;13.57;78.76
77019;BME280;66044;53.142;17.962;2023-10-31T07:21:59;98802.58;;;13.57;78.69
77019;BME280;66044;53.142;17.962;2023-10-31T07:24:25;98803.81;;;13.56;78.85
77019;BME280;66044;53.142;17.962;2023-10-31T07:26:54;98800.58;;;13.56;79.05
77019;BME280;66044;53.142;17.962;2023-10-31T07:29:24;98799.73;;;13.55;78.99
77019;BME280;66044;53.142;17.962;2023-10-31T07:31:50;98796.50;;;13.54;78.98
77019;BME280;66044;53.142;17.962;2023-10-31T07:34:17;98791.52;;;13.53;79.13
77019;BME280;66044;53.142;17.962;2023-10-31T07:36:44;98789.20;;;13.52;79.31
77019;BME280;66044;53.142;17.962;2023-10-31T07:39:10;98784.96;;;13.52;79.29
77019;BME280;66044;53.142;17.962;2023-10-31T07:41:39;98783.73;;;13.51;79.42
77019;BME280;66044;53.142;17.962;2023-10-31T07:44:06;98787.96;;;13.51;79.60
77019;BME280;66044;53.142;17.962;2023-10-31T07:46:32;98784.34;;;13.50;79.65
77019;BME280;66044;53.142;17.962;2023-10-31T07:48:59;98775.70;;;13.49;79.78
77019;BME280;66044;53.142;17.962;2023-10-31T07:51:25;98773.32;;;13.49;79.94
77019;BME280;66044;53.142;17.962;2023-10-31T07:53:51;98775.79;;;13.50;79.94
77019;BME280;66044;53.142;17.962;2023-10-31T07:56:18;98775.79;;;13.48;80.14
77019;BME280;66044;53.142;17.962;2023-10-31T07:58:49;98775.79;;;13.46;80.26
77019;BME280;66044;53.142;17.962;2023-10-31T08:01:17;98774.04;;;13.44;80.34
77019;BME280;66044;53.142;17.962;2023-10-31T08:03:45;98775.42;;;13.43;80.49
77019;BME280;66044;53.142;17.962;2023-10-31T08:06:14;98766.80;;;13.41;80.66
77019;BME280;66044;53.142;17.962;2023-10-31T08:08:40;98775.12;;;13.38;80.81
77019;BME280;66044;53.142;17.962;2023-10-31T08:11:11;98775.45;;;13.38;80.91
77019;BME280;66044;53.142;17.962;2023-10-31T08:13:38;98778.08;;;13.37;81.06
77019;BME280;66044;53.142;17.962;2023-10-31T08:16:07;98777.46;;;13.35;81.12
77019;BME280;66044;53.142;17.962;2023-10-31T08:18:34;98773.76;;;13.34;81.28
77019;BME280;66044;53.142;17.962;2023-10-31T08:21:01;98774.30;;;13.33;81.37
77019;BME280;66044;53.142;17.962;2023-10-31T08:23:28;98780.45;;;13.32;81.73
77019;BME280;66044;53.142;17.962;2023-10-31T08:25:56;98773.30;;;13.31;81.80
77019;BME280;66044;53.142;17.962;2023-10-31T08:28:22;98782.01;;;13.31;82.02
77019;BME280;66044;53.142;17.962;2023-10-31T08:30:49;98785.23;;;13.32;82.31
77019;BME280;66044;53.142;17.962;2023-10-31T08:33:16;98782.32;;;13.30;82.36
77019;BME280;66044;53.142;17.962;2023-10-31T08:35:42;98789.64;;;13.32;82.49
77019;BME280;66044;53.142;17.962;2023-10-31T08:38:09;98797.48;;;13.32;82.84
77019;BME280;66044;53.142;17.962;2023-10-31T08:40:36;98800.41;;;13.32;82.87
77019;BME280;66044;53.142;17.962;2023-10-31T08:43:02;98801.34;;;13.32;83.03
77019;BME280;66044;53.142;17.962;2023-10-31T08:45:30;98804.89;;;13.32;83.05
77019;BME280;66044;53.142;17.962;2023-10-31T08:47:57;98806.96;;;13.33;83.30
77019;BME280;66044;53.142;17.962;2023-10-31T08:50:23;98809.58;;;13.33;83.52
77019;BME280;66044;53.142;17.962;2023-10-31T08:52:51;98811.81;;;13.33;83.61
77019;BME280;66044;53.142;17.962;2023-10-31T08:55:17;98814.13;;;13.34;83.76
77019;BME280;66044;53.142;17.962;2023-10-31T08:57:44;98817.21;;;13.34;83.76
77019;BME280;66044;53.142;17.962;2023-10-31T09:00:11;98817.60;;;13.36;83.93
77019;BME280;66044;53.142;17.962;2023-10-31T09:02:37;98818.05;;;13.38;84.10
77019;BME280;66044;53.142;17.962;2023-10-31T09:05:04;98820.89;;;13.42;84.24
77019;BME280;66044;53.142;17.962;2023-10-31T09:07:30;98825.65;;;13.47;84.19
77019;BME280;66044;53.142;17.962;2023-10-31T09:09:58;98827.27;;;13.51;84.32
77019;BME280;66044;53.142;17.962;2023-10-31T09:12:24;98826.63;;;13.55;84.39
77019;BME280;66044;53.142;17.962;2023-10-31T09:14:50;98822.30;;;13.60;84.46
77019;BME280;66044;53.142;17.962;2023-10-31T09:17:17;98822.44;;;13.63;84.42
77019;BME280;66044;53.142;17.962;2023-10-31T09:19:43;98819.59;;;13.64;84.33
77019;BME280;66044;53.142;17.962;2023-10-31T09:22:10;98822.44;;;13.66;84.30
77019;BME280;66044;53.142;17.962;2023-10-31T09:24:36;98821.05;;;13.68;84.50
77019;BME280;66044;53.142;17.962;2023-10-31T09:27:03;98823.05;;;13.68;84.32
77019;BME280;66044;53.142;17.962;2023-10-31T09:29:29;98826.73;;;13.68;84.45
77019;BME280;66044;53.142;17.962;2023-10-31T09:31:56;98825.96;;;13.69;84.56
77019;BME280;66044;53.142;17.962;2023-10-31T09:34:23;98825.66;;;13.71;84.49
77019;BME280;66044;53.142;17.962;2023-10-31T09:36:49;98825.58;;;13.74;84.35
77019;BME280;66044;53.142;17.962;2023-10-31T09:39:16;98822.16;;;13.76;84.36
77019;BME280;66044;53.142;17.962;2023-10-31T09:41:42;98822.54;;;13.81;84.51
77019;BME280;66044;53.142;17.962;2023-10-31T09:44:10;98830.37;;;13.84;84.41
77019;BME280;66044;53.142;17.962;2023-10-31T09:46:37;98839.23;;;13.86;84.34
77019;BME280;66044;53.142;17.962;2023-10-31T09:49:04;98839.77;;;13.88;84.06
77019;BME280;66044;53.142;17.962;2023-10-31T09:51:31;98839.00;;;13.90;84.04
77019;BME280;66044;53.142;17.962;2023-10-31T09:53:59;98848.55;;;13.92;84.18
77019;BME280;66044;53.142;17.962;2023-10-31T09:56:29;98857.33;;;13.94;84.14
77019;BME280;66044;53.142;17.962;2023-10-31T09:59:02;98859.58;;;13.94;84.02
77019;BME280;66044;53.142;17.962;2023-10-31T10:01:34;98863.43;;;13.95;83.87
77019;BME280;66044;53.142;17.962;2023-10-31T10:04:01;98866.05;;;13.96;83.76
77019;BME280;66044;53.142;17.962;2023-10-31T10:06:28;98856.38;;;13.99;83.52
77019;BME280;66044;53.142;17.962;2023-10-31T10:08:57;98859.08;;;14.01;83.58
77019;BME280;66044;53.142;17.962;2023-10-31T10:11:24;98866.41;;;14.04;83.57
77019;BME280;66044;53.142;17.962;2023-10-31T10:13:54;98870.77;;;14.07;83.35
77019;BME280;66044;53.142;17.962;2023-10-31T10:16:31;98871.46;;;14.11;83.26
77019;BME280;66044;53.142;17.962;2023-10-31T10:21:53;98874.66;;;14.18;83.06
77019;BME280;66044;53.142;17.962;2023-10-31T10:24:21;98886.08;;;14.19;82.90
77019;BME280;66044;53.142;17.962;2023-10-31T10:26:48;98881.38;;;14.17;82.83
77019;BME280;66044;53.142;17.962;2023-10-31T10:29:16;98884.61;;;14.16;82.70
77019;BME280;66044;53.142;17.962;2023-10-31T10:31:43;98889.09;;;14.15;82.52
77019;BME280;66044;53.142;17.962;2023-10-31T10:34:13;98896.06;;;14.13;82.41
77019;BME280;66044;53.142;17.962;2023-10-31T10:36:40;98899.39;;;14.11;82.25
77019;BME280;66044;53.142;17.962;2023-10-31T10:39:07;98905.25;;;14.10;82.35
77019;BME280;66044;53.142;17.962;2023-10-31T10:41:35;98913.81;;;14.08;82.28
77019;BME280;66044;53.142;17.962;2023-10-31T10:44:06;98919.29;;;14.08;81.98
77019;BME280;66044;53.142;17.962;2023-10-31T10:46:35;98929.17;;;14.05;81.86
77019;BME280;66044;53.142;17.962;2023-10-31T10:49:06;98933.66;;;14.03;81.98
77019;BME280;66044;53.142;17.962;2023-10-31T10:52:01;98937.29;;;14.00;81.89
77019;BME280;66044;53.142;17.962;2023-10-31T10:54:35;98938.45;;;14.00;81.79
77019;BME280;66044;53.142;17.962;2023-10-31T10:57:19;98940.23;;;13.98;81.71
77019;BME280;66044;53.142;17.962;2023-10-31T10:59:49;98933.91;;;13.97;81.51
77019;BME280;66044;53.142;17.962;2023-10-31T11:02:18;98929.29;;;13.97;81.58
77019;BME280;66044;53.142;17.962;2023-10-31T11:04:46;98922.79;;;13.99;81.46
77019;BME280;66044;53.142;17.962;2023-10-31T11:07:17;98924.95;;;14.01;81.45
77019;BME280;66044;53.142;17.962;2023-10-31T11:09:45;98924.71;;;14.02;81.29
77019;BME280;66044;53.142;17.962;2023-10-31T11:12:13;98919.94;;;14.04;81.29
77019;BME280;66044;53.142;17.962;2023-10-31T11:14:42;98918.91;;;14.06;81.31
77019;BME280;66044;53.142;17.962;2023-10-31T11:17:23;98933.33;;;14.08;81.20
77019;BME280;66044;53.142;17.962;2023-10-31T11:19:53;98935.19;;;14.08;81.05
77019;BME280;66044;53.142;17.962;2023-10-31T11:22:21;98936.95;;;14.07;80.90
77019;BME280;66044;53.142;17.962;2023-10-31T11:24:51;98945.01;;;14.05;80.76
77019;BME280;66044;53.142;17.962;2023-10-31T11:27:18;98950.79;;;14.04;80.82
77019;BME280;66044;53.142;17.962;2023-10-31T11:29:45;98968.38;;;14.03;80.55
77019;BME280;66044;53.142;17.962;2023-10-31T11:32:11;98973.70;;;14.04;80.63
77019;BME280;66044;53.142;17.962;2023-10-31T11:34:39;98977.72;;;14.04;80.43
77019;BME280;66044;53.142;17.962;2023-10-31T11:37:27;98987.42;;;14.04;80.56
77019;BME280;66044;53.142;17.962;2023-10-31T11:42:41;99017.14;;;13.97;80.39
77019;BME280;66044;53.142;17.962;2023-10-31T11:45:08;99022.30;;;13.95;80.40
77019;BME280;66044;53.142;17.962;2023-10-31T11:47:49;99015.90;;;13.92;80.36
77019;BME280;66044;53.142;17.962;2023-10-31T11:50:16;99023.70;;;13.87;80.49
77019;BME280;66044;53.142;17.962;2023-10-31T11:52:43;99031.11;;;13.82;80.48
77019;BME280;66044;53.142;17.962;2023-10-31T11:55:11;99046.70;;;13.79;80.59
77019;BME280;66044;53.142;17.962;2023-10-31T11:57:39;99052.23;;;13.79;80.75
77019;BME280;66044;53.142;17.962;2023-10-31T12:00:06;99051.31;;;13.78;80.83
77019;BME280;66044;53.142;17.962;2023-10-31T12:02:36;99060.34;;;13.75;80.76
77019;BME280;66044;53.142;17.962;2023-10-31T12:05:09;99063.66;;;13.73;81.06
77019;BME280;66044;53.142;17.962;2023-10-31T12:07:46;99063.34;;;13.73;81.20
77019;BME280;66044;53.142;17.962;2023-10-31T12:10:13;99065.27;;;13.72;81.54
77019;BME280;66044;53.142;17.962;2023-10-31T12:12:39;99072.29;;;13.71;81.45
77019;BME280;66044;53.142;17.962;2023-10-31T12:15:09;99069.27;;;13.71;81.49
77019;BME280;66044;53.142;17.962;2023-10-31T12:17:36;99066.28;;;13.68;81.65
77019;BME280;66044;53.142;17.962;2023-10-31T12:20:06;99062.73;;;13.67;81.65
77019;BME280;66044;53.142;17.962;2023-10-31T12:22:36;99059.98;;;13.67;81.73
77019;BME280;66044;53.142;17.962;2023-10-31T12:25:04;99055.86;;;13.69;81.73
77019;BME280;66044;53.142;17.962;2023-10-31T12:27:50;99053.23;;;13.70;81.66
77019;BME280;66044;53.142;17.962;2023-10-31T12:30:18;99046.53;;;13.69;81.84
77019;BME280;66044;53.142;17.962;2023-10-31T12:32:45;99043.23;;;13.72;82.01
77019;BME280;66044;53.142;17.962;2023-10-31T12:35:13;99042.15;;;13.78;82.20
77019;BME280;66044;53.142;17.962;2023-10-31T12:37:47;99039.98;;;13.84;82.26
77019;BME280;66044;53.142;17.962;2023-10-31T12:40:18;99038.59;;;13.86;82.06
77019;BME280;66044;53.142;17.962;2023-10-31T12:42:47;99038.58;;;13.93;81.91
77019;BME280;66044;53.142;17.962;2023-10-31T12:45:14;99046.05;;;14.03;81.83
77019;BME280;66044;53.142;17.962;2023-10-31T12:47:41;99044.73;;;14.10;81.76
77019;BME280;66044;53.142;17.962;2023-10-31T12:50:16;99045.97;;;14.11;81.63
77019;BME280;66044;53.142;17.962;2023-10-31T12:52:51;99047.20;;;14.10;81.41
77019;BME280;66044;53.142;17.962;2023-10-31T12:55:20;99056.14;;;14.07;81.17
77019;BME280;66044;53.142;17.962;2023-10-31T12:57:48;99058.15;;;14.06;81.43